createdAt,value
2023-01-08T00:01:42.378Z,0.50
2023-01-08T00:06:40.278Z,2.60
2023-01-08T00:09:13.592Z,1.80
2023-01-08T00:11:43.622Z,1.40
2023-01-08T00:14:12.517Z,0.50
2023-01-08T00:16:41.479Z,1.40
2023-01-08T00:19:13.062Z,1.60
2023-01-08T00:21:42.023Z,2.20
2023-01-08T00:24:11.004Z,1.70
2023-01-08T00:26:39.970Z,1.80
2023-01-08T00:29:09.031Z,1.50
2023-01-08T00:31:37.982Z,1.60
2023-01-08T00:34:06.913Z,1.10
2023-01-08T00:36:35.951Z,0.70
2023-01-08T00:39:04.975Z,1.20
2023-01-08T00:41:34.054Z,1.70
2023-01-08T00:44:02.972Z,1.30
2023-01-08T00:46:31.823Z,1.10
2023-01-08T00:51:29.442Z,1.00
2023-01-08T00:56:26.925Z,0.70
2023-01-08T01:01:25.429Z,1.20
2023-01-08T01:03:54.519Z,1.60
2023-01-08T01:06:23.410Z,1.60
2023-01-08T01:11:25.731Z,1.30
2023-01-08T01:13:56.775Z,1.90
2023-01-08T01:16:26.681Z,2.10
2023-01-08T01:18:57.422Z,1.20
2023-01-08T01:21:29.891Z,1.60
2023-01-08T01:24:02.282Z,2.70
2023-01-08T01:26:32.923Z,2.40
2023-01-08T01:29:02.311Z,2.60
2023-01-08T01:31:33.711Z,2.00
2023-01-08T01:34:02.678Z,2.20
2023-01-08T01:36:31.580Z,3.40
2023-01-08T01:41:42.071Z,2.70
2023-01-08T01:44:43.926Z,2.70
2023-01-08T01:47:37.028Z,1.40
2023-01-08T01:50:09.410Z,3.60
2023-01-08T01:53:02.138Z,1.90
2023-01-08T01:55:32.590Z,2.70
2023-01-08T01:58:27.355Z,2.40
2023-01-08T02:00:59.536Z,3.60
2023-01-08T02:03:40.328Z,3.40
2023-01-08T02:06:32.737Z,4.60
2023-01-08T02:09:05.820Z,2.30
2023-01-08T02:11:46.583Z,3.20
2023-01-08T02:14:39.811Z,3.30
2023-01-08T02:17:13.320Z,2.00
2023-01-08T02:19:49.878Z,3.10
2023-01-08T02:22:46.188Z,3.00
2023-01-08T02:26:02.755Z,1.50
2023-01-08T02:28:36.958Z,3.20
2023-01-08T02:31:07.072Z,3.30
2023-01-08T02:33:36.552Z,5.70
2023-01-08T02:36:35.228Z,2.80
2023-01-08T02:39:36.431Z,4.10
2023-01-08T02:42:23.964Z,5.40
2023-01-08T02:45:08.628Z,3.40
2023-01-08T02:47:46.682Z,3.40
2023-01-08T02:50:42.685Z,3.90
2023-01-08T02:53:32.680Z,4.80
2023-01-08T02:56:10.658Z,9.30
2023-01-08T02:58:41.611Z,3.70
2023-01-08T03:01:13.939Z,4.70
2023-01-08T03:03:49.960Z,3.70
2023-01-08T03:09:41.992Z,3.50
2023-01-08T03:12:51.213Z,3.10
2023-01-08T03:15:27.439Z,3.30
2023-01-08T03:18:02.559Z,3.70
2023-01-08T03:20:33.961Z,2.50
2023-01-08T03:23:07.365Z,2.90
2023-01-08T03:25:40.892Z,5.10
2023-01-08T03:28:19.160Z,4.20
2023-01-08T03:30:50.083Z,4.60
2023-01-08T03:33:21.159Z,3.20
2023-01-08T03:35:54.296Z,5.30
2023-01-08T03:38:28.952Z,4.80
2023-01-08T03:43:33.097Z,3.70
2023-01-08T03:46:11.567Z,3.00
2023-01-08T03:48:41.749Z,4.30
2023-01-08T03:51:11.713Z,2.70
2023-01-08T03:53:40.579Z,3.90
2023-01-08T03:58:38.112Z,2.80
2023-01-08T04:03:35.550Z,1.10
2023-01-08T04:06:04.381Z,2.80
2023-01-08T04:11:01.867Z,2.10
2023-01-08T04:15:59.642Z,2.70
2023-01-08T04:18:28.570Z,1.60
2023-01-08T04:20:57.418Z,1.40
2023-01-08T04:25:55.927Z,4.20
2023-01-08T04:28:25.312Z,2.80
2023-01-08T04:30:54.204Z,1.80
2023-01-08T04:35:52.630Z,3.10
2023-01-08T04:38:21.437Z,2.10
2023-01-08T04:40:50.177Z,3.90
2023-01-08T04:43:19.026Z,2.40
2023-01-08T04:48:16.390Z,2.60
2023-01-08T04:53:14.150Z,3.70
2023-01-08T04:58:11.684Z,1.20
2023-01-08T05:00:41.568Z,1.80
2023-01-08T05:03:10.441Z,2.50
2023-01-08T05:08:07.958Z,2.80
2023-01-08T05:13:06.078Z,2.40
2023-01-08T05:15:35.083Z,3.50
2023-01-08T05:18:06.411Z,1.80
2023-01-08T05:20:36.134Z,4.00
2023-01-08T05:23:05.002Z,2.10
2023-01-08T05:28:02.877Z,1.20
2023-01-08T05:30:31.865Z,2.80
2023-01-08T05:33:02.188Z,1.00
2023-01-08T05:35:31.121Z,1.20
2023-01-08T05:38:01.533Z,2.60
2023-01-08T05:40:30.417Z,2.40
2023-01-08T05:43:03.380Z,0.90
2023-01-08T05:45:33.380Z,0.80
2023-01-08T05:48:07.679Z,1.30
2023-01-08T05:50:36.515Z,0.70
2023-01-08T05:53:09.972Z,1.40
2023-01-08T05:55:39.193Z,1.30
2023-01-08T05:58:08.055Z,1.90
2023-01-08T06:00:37.038Z,2.60
2023-01-08T06:05:34.765Z,1.80
2023-01-08T06:08:03.512Z,1.00
2023-01-08T06:10:32.253Z,2.30
2023-01-08T06:13:01.191Z,2.80
2023-01-08T06:17:58.551Z,1.50
2023-01-08T06:20:27.338Z,0.80
2023-01-08T06:22:56.217Z,0.70
2023-01-08T06:25:25.292Z,2.10
2023-01-08T06:27:54.861Z,2.30
2023-01-08T06:30:23.883Z,1.30
2023-01-08T06:32:58.178Z,1.50
2023-01-08T06:35:28.058Z,1.40
2023-01-08T06:37:57.084Z,2.20
2023-01-08T06:40:26.198Z,1.70
2023-01-08T06:42:54.904Z,2.30
2023-01-08T06:45:23.574Z,2.50
2023-01-08T06:47:52.287Z,1.20
2023-01-08T06:50:20.945Z,1.80
2023-01-08T06:52:54.696Z,1.00
2023-01-08T06:55:24.828Z,1.10
2023-01-08T06:57:58.038Z,1.70
2023-01-08T07:00:27.735Z,2.00
2023-01-08T07:02:56.979Z,1.80
2023-01-08T07:05:25.941Z,1.50
2023-01-08T07:07:54.853Z,1.10
2023-01-08T07:12:52.385Z,0.80
2023-01-08T07:15:21.141Z,1.30
2023-01-08T07:17:49.914Z,1.80
2023-01-08T07:20:18.729Z,0.50
2023-01-08T07:22:47.435Z,0.30
2023-01-08T07:25:16.240Z,0.80
2023-01-08T07:27:44.909Z,1.50
2023-01-08T07:30:28.648Z,0.50
2023-01-08T07:33:00.712Z,1.40
2023-01-08T07:35:30.404Z,0.70
2023-01-08T07:37:59.172Z,0.80
2023-01-08T07:40:27.996Z,1.00
2023-01-08T07:43:05.123Z,1.40
2023-01-08T07:45:33.951Z,0.60
2023-01-08T07:48:02.717Z,0.50
2023-01-08T07:53:01.556Z,4.90
2023-01-08T07:55:31.367Z,15.30
2023-01-08T07:58:00.100Z,11.00
2023-01-08T08:00:28.931Z,16.20
2023-01-08T08:05:32.051Z,33.10
2023-01-08T08:08:00.963Z,24.10
2023-01-08T08:12:58.210Z,14.00
2023-01-08T08:15:26.926Z,69.80
2023-01-08T08:17:55.715Z,105.10
2023-01-08T08:20:24.877Z,123.70
2023-01-08T08:23:00.433Z,81.20
2023-01-08T08:25:29.600Z,34.90
2023-01-08T08:28:00.673Z,39.40
2023-01-08T08:30:31.024Z,24.00
2023-01-08T08:33:02.036Z,16.00
2023-01-08T08:35:32.377Z,10.40
2023-01-08T08:38:01.728Z,7.30
2023-01-08T08:40:30.603Z,4.20
2023-01-08T08:45:30.249Z,2.80
2023-01-08T08:47:59.056Z,3.50
2023-01-08T08:50:27.979Z,4.10
2023-01-08T08:53:01.503Z,12.30
2023-01-08T08:55:30.243Z,9.80
2023-01-08T08:58:13.943Z,7.50
2023-01-08T09:00:43.798Z,6.20
2023-01-08T09:03:16.544Z,11.10
2023-01-08T09:05:46.037Z,10.80
2023-01-08T09:08:14.777Z,15.20
2023-01-08T09:10:44.099Z,16.40
2023-01-08T09:13:12.835Z,29.80
2023-01-08T09:15:41.604Z,36.60
2023-01-08T09:18:10.455Z,27.00
2023-01-08T09:20:40.711Z,12.10
2023-01-08T09:23:10.182Z,16.50
2023-01-08T09:25:38.849Z,25.20
2023-01-08T09:28:12.763Z,21.80
2023-01-08T09:30:41.771Z,20.70
2023-01-08T09:33:11.767Z,23.80
2023-01-08T09:35:40.647Z,25.60
2023-01-08T09:38:09.906Z,18.80
2023-01-08T09:40:56.169Z,49.10
2023-01-08T09:43:26.761Z,58.30
2023-01-08T09:46:00.058Z,50.40
2023-01-08T09:48:33.173Z,24.20
2023-01-08T09:51:02.484Z,18.70
2023-01-08T09:53:33.817Z,10.70
2023-01-08T09:56:10.644Z,6.60
2023-01-08T09:58:50.880Z,8.60
2023-01-08T10:01:23.860Z,8.50
2023-01-08T10:04:12.179Z,9.00
2023-01-08T10:06:41.891Z,5.20
2023-01-08T10:09:15.466Z,6.30
2023-01-08T10:11:49.064Z,6.50
2023-01-08T10:14:25.159Z,6.00
2023-01-08T10:17:03.667Z,4.40
2023-01-08T10:19:32.440Z,4.40
2023-01-08T10:22:01.230Z,3.90
2023-01-08T10:27:13.465Z,3.40
2023-01-08T10:29:42.684Z,3.40
2023-01-08T10:32:19.163Z,4.80
2023-01-08T10:34:51.231Z,4.30
2023-01-08T10:37:24.804Z,5.50
2023-01-08T10:39:56.251Z,5.50
2023-01-08T10:42:25.083Z,4.20
2023-01-08T10:45:00.255Z,4.30
2023-01-08T10:47:33.168Z,7.90
2023-01-08T10:50:04.553Z,5.90
2023-01-08T10:52:36.690Z,3.90
2023-01-08T10:55:28.421Z,3.70
2023-01-08T10:58:02.921Z,3.20
2023-01-08T11:00:34.629Z,2.80
2023-01-08T11:03:07.712Z,1.60
2023-01-08T11:05:40.120Z,2.90
2023-01-08T11:08:18.317Z,2.20
2023-01-08T11:11:11.292Z,1.70
2023-01-08T11:13:40.300Z,1.20
2023-01-08T11:16:11.120Z,2.40
2023-01-08T11:18:48.568Z,1.50
2023-01-08T11:21:26.695Z,0.90
2023-01-08T11:24:25.860Z,1.40
2023-01-08T11:27:01.020Z,1.90
2023-01-08T11:29:42.327Z,1.50
2023-01-08T11:32:39.303Z,1.70
2023-01-08T11:35:10.868Z,1.00
2023-01-08T11:37:44.400Z,1.20
2023-01-08T11:40:22.727Z,1.40
2023-01-08T11:43:29.591Z,1.30
2023-01-08T11:46:17.263Z,1.80
2023-01-08T11:49:08.198Z,5.50
2023-01-08T11:51:55.491Z,3.50
2023-01-08T11:54:39.354Z,3.00
2023-01-08T11:57:39.300Z,2.20
2023-01-08T12:00:46.189Z,2.20
2023-01-08T12:05:04.269Z,0.90
2023-01-08T12:07:50.699Z,1.80
2023-01-08T12:10:28.527Z,1.60
2023-01-08T12:13:39.889Z,2.20
2023-01-08T12:16:36.477Z,1.20
2023-01-08T12:19:20.330Z,1.30
2023-01-08T12:22:19.736Z,1.10
2023-01-08T12:25:03.812Z,1.00
2023-01-08T12:27:59.277Z,1.60
2023-01-08T12:30:46.984Z,1.50
2023-01-08T12:33:52.766Z,1.80
2023-01-08T12:36:41.392Z,1.20
2023-01-08T12:39:16.746Z,0.60
2023-01-08T12:41:49.378Z,2.10
2023-01-08T12:44:24.922Z,1.60
2023-01-08T12:47:03.378Z,0.70
2023-01-08T12:50:02.734Z,1.80
2023-01-08T12:53:00.697Z,0.60
2023-01-08T12:55:50.821Z,0.90
2023-01-08T12:58:56.756Z,2.10
2023-01-08T13:01:26.809Z,0.90
2023-01-08T13:03:58.784Z,0.40
2023-01-08T13:06:31.560Z,1.30
2023-01-08T13:09:01.801Z,3.40
2023-01-08T13:11:39.004Z,2.20
2023-01-08T13:14:14.436Z,1.10
2023-01-08T13:16:46.807Z,2.20
2023-01-08T13:19:32.128Z,2.10
2023-01-08T13:22:02.561Z,2.70
2023-01-08T13:24:34.718Z,1.70
2023-01-08T13:27:29.856Z,0.60
2023-01-08T13:29:58.821Z,4.50
2023-01-08T13:32:37.552Z,1.90
2023-01-08T13:35:15.521Z,1.70
2023-01-08T13:37:49.963Z,1.30
2023-01-08T13:40:43.801Z,1.20
2023-01-08T13:43:21.095Z,1.50
2023-01-08T13:45:59.224Z,2.60
2023-01-08T13:48:40.845Z,1.60
2023-01-08T13:51:28.368Z,1.40
2023-01-08T13:53:58.046Z,4.30
2023-01-08T13:56:27.083Z,1.20
2023-01-08T13:58:56.299Z,1.00
2023-01-08T14:01:25.326Z,0.80
2023-01-08T14:03:54.295Z,1.40
2023-01-08T14:06:26.731Z,0.90
2023-01-08T14:08:57.819Z,1.40
2023-01-08T14:15:09.803Z,0.40
2023-01-08T14:17:37.420Z,0.30
2023-01-08T14:20:11.654Z,0.40
2023-01-08T14:22:41.932Z,0.80
2023-01-08T14:25:16.993Z,1.10
2023-01-08T14:27:55.579Z,0.90
2023-01-08T14:30:23.957Z,0.60
2023-01-08T14:32:52.218Z,1.30
2023-01-08T14:35:28.272Z,1.70
2023-01-08T14:42:06.932Z,2.00
2023-01-08T14:44:40.466Z,1.60
2023-01-08T14:47:19.632Z,0.90
2023-01-08T14:49:54.740Z,0.90
2023-01-08T14:52:24.018Z,1.20
2023-01-08T14:54:58.031Z,1.20
2023-01-08T14:57:28.593Z,1.30
2023-01-08T15:00:02.607Z,0.20
2023-01-08T15:02:37.986Z,1.10
2023-01-08T15:05:19.675Z,0.60
2023-01-08T15:08:44.073Z,1.30
2023-01-08T15:11:18.708Z,1.50
2023-01-08T15:13:50.379Z,1.00
2023-01-08T15:16:22.176Z,1.50
2023-01-08T15:19:07.720Z,1.10
2023-01-08T15:21:37.246Z,2.90
2023-01-08T15:24:07.802Z,3.90
2023-01-08T15:26:43.104Z,2.90
2023-01-08T15:29:20.726Z,2.20
2023-01-08T15:31:50.377Z,2.20
2023-01-08T15:34:21.459Z,3.30
2023-01-08T15:36:50.531Z,1.90
2023-01-08T15:39:19.443Z,1.20
2023-01-08T15:42:18.067Z,2.00
2023-01-08T15:44:50.163Z,1.30
2023-01-08T15:47:21.972Z,0.50
2023-01-08T15:49:51.467Z,0.50
2023-01-08T15:52:23.850Z,1.00
2023-01-08T15:54:52.720Z,1.20
2023-01-08T15:57:22.607Z,1.10
2023-01-08T15:59:52.138Z,1.40
2023-01-08T16:02:24.276Z,2.70
2023-01-08T16:04:54.661Z,1.20
2023-01-08T16:07:24.059Z,2.20
2023-01-08T16:09:53.123Z,3.00
2023-01-08T16:12:22.584Z,3.10
2023-01-08T16:15:00.769Z,1.00
2023-01-08T16:17:30.767Z,2.10
2023-01-08T16:20:02.423Z,1.40
2023-01-08T16:22:31.708Z,2.40
2023-01-08T16:25:00.751Z,2.70
2023-01-08T16:27:34.662Z,1.40
2023-01-08T16:30:04.102Z,2.30
2023-01-08T16:32:52.267Z,2.10
2023-01-08T16:35:22.647Z,3.30
2023-01-08T16:37:51.494Z,1.80
2023-01-08T16:40:21.221Z,1.90
2023-01-08T16:42:50.148Z,1.80
2023-01-08T16:45:19.042Z,2.50
2023-01-08T16:47:47.995Z,2.90
2023-01-08T16:50:17.229Z,2.20
2023-01-08T16:52:46.330Z,1.80
2023-01-08T16:55:15.344Z,2.00
2023-01-08T16:57:44.273Z,1.70
2023-01-08T17:00:14.186Z,1.90
2023-01-08T17:02:43.284Z,2.00
2023-01-08T17:05:12.680Z,3.30
2023-01-08T17:07:41.778Z,1.20
2023-01-08T17:10:11.558Z,2.00
2023-01-08T17:12:40.667Z,1.10
2023-01-08T17:15:10.356Z,0.40
2023-01-08T17:17:42.339Z,2.10
2023-01-08T17:20:12.099Z,1.30
2023-01-08T17:22:41.169Z,1.90
2023-01-08T17:25:10.462Z,1.70
2023-01-08T17:27:39.522Z,1.20
2023-01-08T17:30:10.928Z,2.40
2023-01-08T17:32:39.897Z,3.20
2023-01-08T17:35:09.203Z,2.60
2023-01-08T17:37:38.367Z,1.70
2023-01-08T17:40:11.166Z,2.10
2023-01-08T17:42:40.219Z,2.20
2023-01-08T17:45:18.785Z,2.30
2023-01-08T17:47:50.704Z,1.20
2023-01-08T17:50:19.984Z,2.20
2023-01-08T17:52:48.969Z,1.50
2023-01-08T17:55:17.947Z,1.60
2023-01-08T17:57:46.845Z,2.10
2023-01-08T18:00:16.671Z,2.00
2023-01-08T18:02:46.376Z,2.60
2023-01-08T18:05:15.735Z,0.40
2023-01-08T18:07:47.470Z,1.90
2023-01-08T18:10:16.468Z,1.70
2023-01-08T18:12:45.392Z,1.50
2023-01-08T18:15:23.038Z,1.50
2023-01-08T18:17:53.231Z,2.50
2023-01-08T18:20:31.391Z,1.20
2023-01-08T18:23:03.427Z,2.20
2023-01-08T18:25:41.512Z,2.40
2023-01-08T18:28:10.502Z,3.60
2023-01-08T18:30:39.712Z,1.40
2023-01-08T18:33:08.836Z,1.20
2023-01-08T18:35:40.942Z,1.60
2023-01-08T18:38:19.274Z,1.40
2023-01-08T18:40:58.538Z,1.90
2023-01-08T18:43:36.898Z,1.60
2023-01-08T18:46:17.532Z,2.00
2023-01-08T18:48:58.624Z,2.60
2023-01-08T18:51:57.858Z,1.40
2023-01-08T18:54:29.345Z,0.70
2023-01-08T18:56:58.343Z,1.30
2023-01-08T18:59:27.238Z,0.80
2023-01-08T19:02:02.030Z,2.10
2023-01-08T19:04:39.888Z,2.40
2023-01-08T19:07:12.126Z,3.50
2023-01-08T19:10:01.159Z,2.70
2023-01-08T19:12:41.721Z,2.20
2023-01-08T19:15:29.297Z,2.10
2023-01-08T19:21:29.694Z,2.20
2023-01-08T19:23:58.726Z,1.70
2023-01-08T19:26:30.302Z,1.40
2023-01-08T19:28:59.853Z,1.80
2023-01-08T19:34:47.507Z,2.30
2023-01-08T19:37:19.889Z,1.70
2023-01-08T19:39:51.574Z,2.20
2023-01-08T19:43:00.140Z,1.80
2023-01-08T19:45:37.352Z,2.20
2023-01-08T19:48:10.443Z,1.80
2023-01-08T19:50:40.996Z,1.80
2023-01-08T19:53:14.535Z,2.20
2023-01-08T19:55:46.111Z,1.30
2023-01-08T19:58:20.268Z,1.80
2023-01-08T20:00:56.887Z,3.00
2023-01-08T20:03:28.933Z,1.80
2023-01-08T20:05:57.982Z,2.70
2023-01-08T20:08:27.055Z,2.40
2023-01-08T20:10:56.289Z,2.20
2023-01-08T20:13:25.362Z,1.90
2023-01-08T20:15:58.000Z,2.80
2023-01-08T20:18:27.109Z,2.90
2023-01-08T20:21:04.976Z,2.30
2023-01-08T20:23:38.714Z,2.10
2023-01-08T20:26:10.917Z,2.10
2023-01-08T20:28:40.114Z,3.70
2023-01-08T20:31:12.684Z,3.00
2023-01-08T20:33:42.765Z,2.60
2023-01-08T20:36:16.358Z,2.30
2023-01-08T20:38:46.521Z,2.10
2023-01-08T20:41:15.672Z,2.50
2023-01-08T20:43:44.758Z,2.00
2023-01-08T20:46:16.883Z,2.20
2023-01-08T20:48:49.250Z,1.80
2023-01-08T20:51:18.251Z,2.00
2023-01-08T20:53:47.529Z,2.20
2023-01-08T20:56:26.492Z,2.90
2023-01-08T20:58:58.081Z,2.90
2023-01-08T21:01:30.191Z,1.80
2023-01-08T21:04:00.455Z,1.90
2023-01-08T21:06:34.046Z,2.00
2023-01-08T21:09:07.863Z,1.90
2023-01-08T21:11:39.208Z,2.00
2023-01-08T21:14:10.124Z,1.60
2023-01-08T21:16:40.905Z,2.10
2023-01-08T21:19:10.805Z,2.90
2023-01-08T21:21:41.154Z,1.90
2023-01-08T21:24:13.100Z,3.80
2023-01-08T21:26:42.043Z,2.50
2023-01-08T21:29:11.598Z,1.20
2023-01-08T21:31:41.451Z,1.90
2023-01-08T21:34:12.177Z,1.80
2023-01-08T21:36:41.282Z,2.80
2023-01-08T21:39:11.499Z,1.00
2023-01-08T21:41:59.543Z,2.80
2023-01-08T21:44:48.329Z,1.40
2023-01-08T21:47:18.705Z,3.10
2023-01-08T21:49:50.621Z,1.90
2023-01-08T21:52:38.851Z,2.80
2023-01-08T21:55:08.514Z,2.20
2023-01-08T21:57:41.252Z,3.20
2023-01-08T22:00:12.772Z,2.00
2023-01-08T22:02:42.165Z,2.70
2023-01-08T22:05:11.511Z,2.90
2023-01-08T22:07:40.567Z,2.50
2023-01-08T22:10:10.905Z,2.30
2023-01-08T22:12:41.046Z,2.10
2023-01-08T22:15:10.828Z,1.70
2023-01-08T22:17:39.708Z,2.10
2023-01-08T22:20:10.493Z,2.90
2023-01-08T22:22:39.403Z,2.40
2023-01-08T22:25:09.673Z,1.80
2023-01-08T22:27:41.533Z,2.50
2023-01-08T22:30:36.150Z,2.40
2023-01-08T22:33:05.215Z,2.70
2023-01-08T22:35:34.316Z,2.20
2023-01-08T22:38:03.280Z,1.80
2023-01-08T22:40:32.146Z,3.00
2023-01-08T22:45:30.234Z,2.60
2023-01-08T22:47:59.378Z,1.60
2023-01-08T22:50:28.253Z,2.40
2023-01-08T22:52:57.422Z,1.80
2023-01-08T22:55:26.273Z,2.10
2023-01-08T22:57:55.121Z,1.30
2023-01-08T23:00:24.315Z,0.60
2023-01-08T23:02:53.422Z,0.40
2023-01-08T23:05:25.894Z,1.10
2023-01-08T23:07:54.692Z,1.10
2023-01-08T23:10:23.839Z,1.20
2023-01-08T23:12:55.944Z,1.40
2023-01-08T23:15:25.221Z,1.40
2023-01-08T23:17:54.332Z,0.70
2023-01-08T23:20:25.350Z,0.50
2023-01-08T23:22:54.308Z,0.50
2023-01-08T23:25:23.163Z,0.60
2023-01-08T23:30:20.844Z,0.70
2023-01-08T23:32:49.859Z,1.20
2023-01-08T23:35:18.880Z,0.80
2023-01-08T23:37:47.874Z,0.40
2023-01-08T23:40:18.112Z,0.90
2023-01-08T23:42:46.905Z,1.60
2023-01-08T23:45:15.926Z,1.30
2023-01-08T23:47:47.448Z,1.00
2023-01-08T23:50:16.769Z,1.10
2023-01-08T23:52:45.992Z,1.10
2023-01-08T23:55:15.086Z,1.10
2023-01-08T23:57:44.324Z,1.20
